Telluride, CO

10:51 AM MDT on April 28, 2015 (GMT -0600)
CAIC | | Change Station
CLOSE
Current Station
Personal Weather Station
Location: Telluride, CO
Elevation: 11049 ft
Nearby Weather Stations

Elev 11049 ft 37.91 °N, 107.71 °W | Updated 51 minutes ago

Partly Cloudy
Partly Cloudy
36 °F
Feels Like 36 °F
N
-99
Wind Variable Wind from North
Gusts -99.0 mph

Today
High -- | Low -- °F
--% Chance of Precip.
Yesterday
High -- | Low -- °F
Precip. -- in
6:18 AM 7:58 PM
Waxing Gibbous, 75% visible
Pressure 30.36 in
Visibility 10.0 miles
Clouds Mostly Cloudy 5000 ft
Windchill 36 °F
Dew Point 25 °F
Humidity 65%
Rainfall in
Snow Depth Not available.
UV 4 out of 12
Pollen 9.10 out of 12
Air Quality Not available.
Flu Activity Sporadic
METAR KTEX 281635Z AUTO 00000KT 10SM BKN050 07/00 A3036 RMK AO2 T00700003

More Conditions Fewer Conditions

Pressure 30.36 in
Visibility 10.0 miles
Clouds Mostly Cloudy 5000 ft
Windchill 36 °F
Dew Point 25 °F
Humidity 65%
Rainfall in
Snow Depth Not available.
UV 4 out of 12
Pollen 9.10 out of 12
Air Quality Not available.
Flu Activity Sporadic
METAR KTEX 281635Z AUTO 00000KT 10SM BKN050 07/00 A3036 RMK AO2 T00700003

More Conditions Fewer Conditions

10-Day Weather Forecast

Almanac

Astronomy

Apr. 28, 2015 Rise Set
Actual Time
Civil Twilight
Nautical Twilight
Astronomical Twilight
Moon
Length of Visible Light
Length of Day
Tomorrow will be .
, % of the Moon is Illuminated

Today's Extremes

State Highs State Lows

Community

WunderPhotos

Upload Photos

1,817,699 photos uploaded!

WunderBlogs® & News

Nearby

Air Quality

  Air Quality AQ Index Pollutant
Not available.

Snow Depth

Station Depth Elevation

Earthquake Activity

City Distance Mag. Time & Date
Minimum magnitude displayed is 2.5.

Coastal Water Temperatures

Place Temperature

Stations

Nearby Weather Stations

Station Location Temp. Windchill Dew Point Humidity Wind Precip. Elev Updated Type